createdAt,value
2019-04-30T00:01:26.790Z,6.27
2019-04-30T00:04:00.690Z,5.67
2019-04-30T00:06:34.374Z,5.17
2019-04-30T00:09:02.433Z,3.73
2019-04-30T00:11:32.496Z,5.27
2019-04-30T00:14:02.586Z,6.03
2019-04-30T00:16:36.195Z,4.33
2019-04-30T00:19:06.135Z,6.33
2019-04-30T00:21:36.386Z,6.07
2019-04-30T00:24:10.282Z,5.27
2019-04-30T00:26:39.942Z,5.00
2019-04-30T00:29:10.070Z,4.83
2019-04-30T00:31:40.067Z,5.00
2019-04-30T00:34:10.175Z,4.97
2019-04-30T00:36:40.153Z,4.10
2019-04-30T00:39:13.314Z,5.50
2019-04-30T00:41:45.913Z,7.87
2019-04-30T00:44:15.144Z,5.53
2019-04-30T00:46:45.792Z,7.23
2019-04-30T00:49:22.854Z,5.43
2019-04-30T00:51:49.895Z,7.67
2019-04-30T00:54:22.553Z,6.50
2019-04-30T00:56:52.177Z,4.47
2019-04-30T00:59:22.183Z,5.07
2019-04-30T01:02:06.076Z,5.27
2019-04-30T01:04:47.830Z,4.10
2019-04-30T01:07:17.800Z,8.27
2019-04-30T01:09:49.877Z,7.00
2019-04-30T01:12:27.711Z,5.80
2019-04-30T01:14:51.220Z,4.50
2019-04-30T01:17:21.186Z,9.80
2019-04-30T01:19:54.536Z,9.27
2019-04-30T01:22:28.196Z,6.03
2019-04-30T01:24:54.793Z,7.67
2019-04-30T01:27:24.807Z,6.07
2019-04-30T01:29:54.968Z,5.33
2019-04-30T01:32:24.992Z,8.00
2019-04-30T01:34:55.538Z,7.63
2019-04-30T01:37:29.632Z,4.03
2019-04-30T01:39:58.938Z,5.70
2019-04-30T01:42:29.050Z,4.00
2019-04-30T01:44:59.060Z,4.57
2019-04-30T01:47:31.220Z,6.57
2019-04-30T01:50:04.730Z,4.90
2019-04-30T01:52:50.506Z,3.93
2019-04-30T01:55:22.158Z,4.70
2019-04-30T01:58:14.204Z,5.30
2019-04-30T02:00:51.288Z,9.13
2019-04-30T02:03:21.713Z,4.33
2019-04-30T02:05:51.753Z,4.50
2019-04-30T02:08:21.804Z,3.67
2019-04-30T02:10:51.906Z,5.03
2019-04-30T02:13:21.891Z,5.13
2019-04-30T02:15:51.896Z,4.07
2019-04-30T02:18:21.989Z,4.40
2019-04-30T02:20:51.964Z,7.20
2019-04-30T02:23:21.989Z,2.87
2019-04-30T02:25:52.069Z,4.20
2019-04-30T02:28:22.088Z,5.07
2019-04-30T02:30:52.145Z,4.13
2019-04-30T02:33:22.261Z,5.57
2019-04-30T02:36:20.260Z,6.70
2019-04-30T02:38:52.724Z,7.10
2019-04-30T02:41:23.029Z,6.13
2019-04-30T02:43:54.583Z,5.30
2019-04-30T02:46:29.213Z,5.30
2019-04-30T02:48:59.777Z,3.73
2019-04-30T02:51:31.664Z,4.97
2019-04-30T02:54:31.544Z,4.83
2019-04-30T02:57:14.337Z,7.03
2019-04-30T03:00:02.497Z,4.90
2019-04-30T03:02:33.225Z,5.37
2019-04-30T03:05:03.229Z,3.50
2019-04-30T03:07:33.235Z,4.03
2019-04-30T03:10:03.286Z,7.07
2019-04-30T03:12:33.889Z,4.90
2019-04-30T03:15:04.031Z,3.33
2019-04-30T03:17:50.609Z,5.03
2019-04-30T03:20:36.851Z,4.67
2019-04-30T03:23:09.838Z,4.40
2019-04-30T03:25:40.592Z,3.47
2019-04-30T03:28:10.707Z,7.77
2019-04-30T03:30:41.795Z,3.10
2019-04-30T03:33:13.285Z,4.53
2019-04-30T03:35:47.807Z,4.83
2019-04-30T03:38:15.398Z,4.20
2019-04-30T03:40:45.337Z,5.27
2019-04-30T03:43:15.364Z,7.17
2019-04-30T03:45:45.325Z,3.90
2019-04-30T03:48:15.328Z,4.97
2019-04-30T03:50:53.296Z,3.00
2019-04-30T03:53:17.069Z,4.07
2019-04-30T03:55:47.157Z,2.97
2019-04-30T03:58:20.806Z,4.77
2019-04-30T04:01:14.217Z,6.10
2019-04-30T04:04:02.361Z,4.20
2019-04-30T04:06:39.474Z,3.83
2019-04-30T04:09:21.959Z,3.93
2019-04-30T04:11:51.009Z,5.33
2019-04-30T04:14:21.181Z,5.37
2019-04-30T04:16:51.224Z,4.60
2019-04-30T04:19:21.315Z,5.00
2019-04-30T04:21:51.315Z,3.70
2019-04-30T04:24:21.327Z,6.27
2019-04-30T04:26:51.357Z,4.40
2019-04-30T04:29:21.425Z,7.57
2019-04-30T04:31:51.403Z,3.60
2019-04-30T04:34:21.393Z,4.40
2019-04-30T04:36:51.432Z,4.70
2019-04-30T04:39:21.430Z,6.30
2019-04-30T04:41:51.540Z,5.47
2019-04-30T04:44:21.531Z,6.33
2019-04-30T04:46:51.491Z,4.83
2019-04-30T04:49:21.492Z,4.73
2019-04-30T04:51:51.459Z,4.23
2019-04-30T04:54:21.554Z,4.73
2019-04-30T04:56:54.749Z,4.20
2019-04-30T04:59:23.279Z,4.47
2019-04-30T05:01:53.342Z,8.70
2019-04-30T05:04:23.375Z,9.80
2019-04-30T05:06:53.372Z,10.00
2019-04-30T05:09:23.418Z,12.47
2019-04-30T05:11:53.496Z,11.40
2019-04-30T05:14:23.516Z,11.53
2019-04-30T05:16:53.509Z,12.23
2019-04-30T05:19:23.550Z,13.43
2019-04-30T05:21:53.532Z,12.43
2019-04-30T05:24:23.531Z,11.87
2019-04-30T05:26:53.521Z,13.57
2019-04-30T05:29:23.550Z,13.27
2019-04-30T05:31:53.593Z,17.20
2019-04-30T05:34:23.610Z,14.67
2019-04-30T05:36:53.632Z,15.00
2019-04-30T05:39:23.628Z,13.77
2019-04-30T05:41:53.663Z,14.40
2019-04-30T05:44:23.673Z,14.43
2019-04-30T05:46:53.668Z,15.53
2019-04-30T05:49:23.751Z,17.83
2019-04-30T05:51:55.875Z,14.60
2019-04-30T05:54:25.453Z,14.53
2019-04-30T05:56:55.446Z,17.13
2019-04-30T05:59:25.488Z,17.00
2019-04-30T06:01:55.618Z,15.23
2019-04-30T06:04:25.575Z,17.37
2019-04-30T06:06:55.609Z,14.13
2019-04-30T06:09:34.262Z,18.70
2019-04-30T06:12:22.175Z,15.63
2019-04-30T06:14:56.206Z,14.13
2019-04-30T06:17:29.396Z,15.23
2019-04-30T06:19:59.462Z,15.70
2019-04-30T06:22:29.519Z,14.93
2019-04-30T06:24:59.600Z,13.83
2019-04-30T06:27:29.918Z,15.30
2019-04-30T06:29:59.898Z,12.63
2019-04-30T06:32:30.070Z,12.93
2019-04-30T06:35:00.064Z,12.40
2019-04-30T06:37:31.561Z,12.73
2019-04-30T06:40:01.742Z,14.47
2019-04-30T06:42:31.833Z,14.00
2019-04-30T06:45:01.832Z,13.90
2019-04-30T06:47:33.450Z,14.40
2019-04-30T06:50:03.548Z,16.50
2019-04-30T06:52:33.583Z,13.73
2019-04-30T06:55:03.613Z,12.97
2019-04-30T06:57:33.643Z,15.93
2019-04-30T07:00:03.647Z,14.80
2019-04-30T07:02:33.735Z,15.67
2019-04-30T07:05:03.779Z,15.03
2019-04-30T07:07:39.004Z,14.70
2019-04-30T07:10:17.000Z,13.63
2019-04-30T07:12:50.609Z,21.83
2019-04-30T07:15:20.626Z,13.97
2019-04-30T07:17:50.645Z,13.63
2019-04-30T07:20:20.660Z,14.90
2019-04-30T07:22:59.113Z,13.27
2019-04-30T07:25:22.436Z,14.17
2019-04-30T07:27:52.498Z,17.23
2019-04-30T07:30:22.584Z,16.10
2019-04-30T07:32:52.718Z,14.40
2019-04-30T07:35:22.740Z,16.33
2019-04-30T07:37:54.636Z,14.33
2019-04-30T07:40:24.489Z,15.23
2019-04-30T07:42:54.618Z,15.23
2019-04-30T07:45:25.765Z,16.50
2019-04-30T07:47:55.853Z,15.30
2019-04-30T07:50:26.453Z,13.97
2019-04-30T07:53:04.736Z,12.80
2019-04-30T07:55:29.544Z,14.97
2019-04-30T07:57:59.699Z,12.30
2019-04-30T08:00:31.315Z,13.63
2019-04-30T08:03:10.693Z,13.70
2019-04-30T08:05:42.693Z,13.47
2019-04-30T08:08:21.211Z,18.20
2019-04-30T08:10:44.540Z,13.83
2019-04-30T08:13:15.757Z,16.07
2019-04-30T08:15:46.508Z,15.23
2019-04-30T08:18:18.397Z,16.40
2019-04-30T08:20:49.016Z,15.20
2019-04-30T08:23:33.061Z,16.40
2019-04-30T08:25:50.827Z,14.73
2019-04-30T08:28:20.873Z,18.90
2019-04-30T08:30:50.877Z,14.87
2019-04-30T08:33:21.020Z,13.50
2019-04-30T08:35:51.097Z,14.03
2019-04-30T08:38:21.143Z,19.17
2019-04-30T08:40:55.986Z,12.83
2019-04-30T08:43:22.929Z,15.67
2019-04-30T08:45:53.010Z,14.33
2019-04-30T08:48:23.081Z,16.67
2019-04-30T08:50:52.202Z,18.27
2019-04-30T08:53:29.507Z,16.83
2019-04-30T08:55:53.851Z,18.73
2019-04-30T08:58:23.993Z,16.23
2019-04-30T09:00:54.135Z,18.17
2019-04-30T09:03:24.243Z,18.43
2019-04-30T09:06:01.255Z,15.83
2019-04-30T09:08:31.349Z,18.27
2019-04-30T09:11:01.385Z,17.83
2019-04-30T09:13:31.419Z,17.83
2019-04-30T09:16:01.454Z,19.87
2019-04-30T09:18:31.508Z,18.73
2019-04-30T09:21:06.074Z,18.37
2019-04-30T09:23:43.965Z,16.70
2019-04-30T09:26:05.125Z,17.50
2019-04-30T09:28:35.131Z,18.13
2019-04-30T09:31:05.211Z,17.40
2019-04-30T09:33:35.210Z,16.57
2019-04-30T09:36:05.348Z,17.97
2019-04-30T09:38:35.391Z,17.40
2019-04-30T09:41:05.505Z,17.98
2019-04-30T09:43:35.545Z,18.60
2019-04-30T09:46:15.391Z,17.10
2019-04-30T09:48:38.645Z,18.80
2019-04-30T09:51:10.761Z,17.80
2019-04-30T09:53:40.946Z,18.70
2019-04-30T09:56:11.126Z,18.27
2019-04-30T09:58:41.223Z,20.43
2019-04-30T10:01:11.267Z,20.00
2019-04-30T10:03:42.016Z,19.55
2019-04-30T10:06:12.565Z,18.65
2019-04-30T10:08:48.443Z,17.55
2019-04-30T10:11:50.115Z,19.77
2019-04-30T10:17:42.025Z,18.92
2019-04-30T10:20:13.354Z,17.97
2019-04-30T10:22:43.384Z,16.17
2019-04-30T10:25:13.623Z,17.90
2019-04-30T10:27:43.674Z,19.10
2019-04-30T10:30:14.693Z,17.52
2019-04-30T10:32:44.737Z,17.32
2019-04-30T10:35:14.795Z,18.23
2019-04-30T10:37:44.828Z,15.20
2019-04-30T10:40:15.161Z,20.02
2019-04-30T10:42:45.193Z,16.50
2019-04-30T10:45:15.468Z,19.07
2019-04-30T10:47:45.468Z,14.38
2019-04-30T10:50:15.692Z,16.17
2019-04-30T10:52:45.764Z,16.65
2019-04-30T10:55:15.788Z,16.77
2019-04-30T10:57:45.844Z,16.27
2019-04-30T11:00:16.275Z,15.80
2019-04-30T11:02:46.314Z,14.65
2019-04-30T11:05:16.510Z,17.70
2019-04-30T11:07:46.646Z,15.13
2019-04-30T11:10:18.773Z,15.05
2019-04-30T11:12:48.652Z,14.83
2019-04-30T11:15:20.634Z,13.88
2019-04-30T11:17:50.810Z,15.50
2019-04-30T11:20:22.196Z,13.88
2019-04-30T11:22:54.761Z,14.93
2019-04-30T11:25:25.051Z,14.68
2019-04-30T11:27:56.399Z,17.75
2019-04-30T11:30:27.715Z,15.23
2019-04-30T11:32:58.792Z,13.60
2019-04-30T11:35:29.704Z,14.18
2019-04-30T11:37:59.836Z,16.02
2019-04-30T11:40:36.874Z,18.82
2019-04-30T11:43:03.622Z,16.10
2019-04-30T11:46:18.709Z,13.88
2019-04-30T11:48:49.088Z,13.48
2019-04-30T11:51:19.437Z,13.83
2019-04-30T11:53:49.802Z,14.10
2019-04-30T11:56:19.810Z,16.10
2019-04-30T11:58:49.850Z,12.18
2019-04-30T12:01:22.382Z,17.25
2019-04-30T12:03:52.468Z,14.75
2019-04-30T12:06:22.507Z,15.15
2019-04-30T12:09:09.205Z,16.23
2019-04-30T12:11:39.230Z,13.28
2019-04-30T12:14:09.249Z,16.15
2019-04-30T12:16:39.623Z,13.85
2019-04-30T12:19:09.932Z,12.15
2019-04-30T12:21:39.954Z,17.62
2019-04-30T12:24:09.998Z,13.78
2019-04-30T12:26:40.026Z,14.45
2019-04-30T12:29:11.241Z,14.15
2019-04-30T12:31:41.416Z,12.25
2019-04-30T12:34:11.466Z,13.38
2019-04-30T12:36:41.500Z,14.38
2019-04-30T12:39:11.622Z,15.20
2019-04-30T12:41:41.648Z,14.35
2019-04-30T12:44:11.788Z,15.40
2019-04-30T12:46:41.980Z,15.63
2019-04-30T12:49:13.106Z,12.65
2019-04-30T12:51:59.866Z,13.55
2019-04-30T12:54:50.866Z,13.05
2019-04-30T12:57:56.142Z,14.35
2019-04-30T13:00:19.514Z,16.07
2019-04-30T13:02:49.668Z,16.87
2019-04-30T13:05:20.679Z,15.23
2019-04-30T13:07:51.389Z,17.73
2019-04-30T13:10:22.670Z,13.78
2019-04-30T13:12:53.595Z,15.65
2019-04-30T13:15:24.027Z,14.35
2019-04-30T13:17:54.161Z,13.62
2019-04-30T13:20:24.517Z,14.13
2019-04-30T13:22:54.836Z,15.50
2019-04-30T13:25:32.488Z,16.23
2019-04-30T13:28:01.410Z,15.40
2019-04-30T13:30:32.262Z,13.05
2019-04-30T13:33:20.259Z,14.07
2019-04-30T13:35:48.970Z,14.80
2019-04-30T13:38:30.348Z,14.45
2019-04-30T13:41:06.194Z,14.53
2019-04-30T13:43:54.011Z,14.10
2019-04-30T13:46:24.525Z,16.23
2019-04-30T13:48:54.566Z,14.33
2019-04-30T13:51:24.687Z,15.23
2019-04-30T13:53:54.720Z,14.63
2019-04-30T13:56:24.811Z,15.23
2019-04-30T13:58:54.834Z,15.00
2019-04-30T14:01:24.913Z,18.25
2019-04-30T14:04:17.318Z,14.83
2019-04-30T14:07:15.751Z,12.73
2019-04-30T14:09:45.956Z,14.87
2019-04-30T14:12:15.986Z,16.30
2019-04-30T14:14:46.075Z,14.13
2019-04-30T14:17:17.295Z,15.25
2019-04-30T14:19:48.453Z,15.32
2019-04-30T14:22:18.593Z,16.52
2019-04-30T14:24:48.689Z,15.95
2019-04-30T14:27:18.726Z,16.05
2019-04-30T14:29:51.114Z,15.35
2019-04-30T14:32:21.175Z,17.00
2019-04-30T14:34:51.273Z,15.30
2019-04-30T14:37:21.467Z,16.25
2019-04-30T14:39:52.170Z,15.03
2019-04-30T14:42:23.605Z,16.30
2019-04-30T14:45:03.843Z,16.48
2019-04-30T14:47:42.827Z,14.95
2019-04-30T14:50:15.324Z,16.82
2019-04-30T14:53:07.427Z,17.40
2019-04-30T14:56:09.477Z,16.45
2019-04-30T14:58:55.637Z,17.37
2019-04-30T15:01:45.659Z,17.15
2019-04-30T15:04:15.714Z,15.10
2019-04-30T15:06:45.793Z,16.12
2019-04-30T15:09:15.999Z,18.12
2019-04-30T15:11:46.085Z,18.07
2019-04-30T15:14:16.149Z,18.52
2019-04-30T15:16:46.220Z,18.00
2019-04-30T15:19:16.361Z,17.60
2019-04-30T15:21:46.497Z,16.23
2019-04-30T15:24:30.163Z,19.85
2019-04-30T15:27:00.209Z,18.17
2019-04-30T15:29:30.397Z,17.85
2019-04-30T15:32:00.502Z,19.87
2019-04-30T15:34:30.537Z,19.48
2019-04-30T15:37:00.606Z,19.00
2019-04-30T15:39:49.031Z,19.65
2019-04-30T15:42:20.372Z,19.40
2019-04-30T15:44:50.522Z,19.55
2019-04-30T15:47:21.759Z,18.35
2019-04-30T15:49:51.968Z,21.73
2019-04-30T15:52:22.075Z,20.25
2019-04-30T15:54:52.077Z,20.17
2019-04-30T15:57:22.134Z,18.62
2019-04-30T15:59:52.161Z,19.10
2019-04-30T16:02:35.197Z,18.15
2019-04-30T16:05:25.343Z,19.95
2019-04-30T16:08:20.408Z,23.77
2019-04-30T16:11:03.786Z,19.98
2019-04-30T16:13:42.538Z,17.55
2019-04-30T16:16:13.280Z,21.35
2019-04-30T16:18:49.354Z,19.35
2019-04-30T16:21:19.596Z,19.20
2019-04-30T16:23:49.668Z,21.87
2019-04-30T16:26:19.745Z,22.30
2019-04-30T16:28:49.797Z,21.02
2019-04-30T16:31:20.537Z,18.23
2019-04-30T16:33:50.883Z,18.55
2019-04-30T16:36:20.920Z,18.02
2019-04-30T16:38:50.988Z,17.77
2019-04-30T16:41:31.191Z,17.30
2019-04-30T16:43:52.889Z,20.33
2019-04-30T16:46:22.932Z,18.73
2019-04-30T16:48:53.046Z,19.52
2019-04-30T16:51:23.096Z,18.27
2019-04-30T16:53:53.215Z,18.87
2019-04-30T16:56:23.322Z,16.62
2019-04-30T16:58:59.437Z,17.75
2019-04-30T17:01:30.957Z,16.32
2019-04-30T17:04:22.326Z,18.05
2019-04-30T17:06:58.828Z,18.50
2019-04-30T17:09:43.619Z,17.62
2019-04-30T17:12:38.770Z,19.10
2019-04-30T17:15:24.294Z,18.90
2019-04-30T17:17:54.432Z,19.67
2019-04-30T17:20:24.611Z,21.40
2019-04-30T17:22:54.633Z,21.60
2019-04-30T17:25:24.685Z,17.92
2019-04-30T17:27:54.713Z,20.45
2019-04-30T17:30:24.853Z,18.92
2019-04-30T17:32:54.986Z,19.12
2019-04-30T17:35:25.035Z,19.15
2019-04-30T17:37:55.080Z,21.48
2019-04-30T17:40:25.257Z,20.10
2019-04-30T17:42:55.268Z,24.00
2019-04-30T17:45:25.351Z,18.57
2019-04-30T17:47:55.406Z,18.15
2019-04-30T17:50:25.481Z,18.40
2019-04-30T17:52:55.553Z,21.07
2019-04-30T17:55:25.652Z,23.00
2019-04-30T17:57:55.723Z,24.40
2019-04-30T18:00:29.278Z,22.30
2019-04-30T18:02:59.432Z,21.23
2019-04-30T18:05:29.786Z,24.47
2019-04-30T18:07:59.895Z,21.30
2019-04-30T18:10:30.563Z,22.27
2019-04-30T18:13:00.622Z,25.73
2019-04-30T18:15:31.165Z,18.73
2019-04-30T18:18:13.413Z,20.70
2019-04-30T18:20:49.156Z,20.32
2019-04-30T18:23:29.132Z,22.43
2019-04-30T18:26:04.559Z,21.97
2019-04-30T18:28:34.618Z,20.87
2019-04-30T18:31:04.771Z,23.13
2019-04-30T18:33:34.836Z,20.90
2019-04-30T18:36:04.913Z,24.17
2019-04-30T18:38:34.933Z,25.17
2019-04-30T18:41:04.991Z,23.80
2019-04-30T18:43:37.822Z,22.90
2019-04-30T18:46:06.863Z,20.13
2019-04-30T18:48:36.872Z,20.57
2019-04-30T18:51:19.189Z,20.63
2019-04-30T18:53:39.712Z,24.43
2019-04-30T18:56:14.534Z,20.47
2019-04-30T18:58:43.136Z,20.63
2019-04-30T19:01:13.618Z,22.03
2019-04-30T19:03:43.670Z,23.50
2019-04-30T19:06:23.805Z,20.77
2019-04-30T19:09:09.640Z,22.60
2019-04-30T19:11:45.903Z,21.57
2019-04-30T19:14:40.596Z,22.93
2019-04-30T19:17:24.022Z,21.43
2019-04-30T19:20:06.463Z,24.30
2019-04-30T19:22:36.536Z,23.13
2019-04-30T19:25:06.651Z,20.87
2019-04-30T19:27:36.722Z,21.77
2019-04-30T19:30:09.311Z,21.50
2019-04-30T19:32:39.483Z,24.13
2019-04-30T19:35:09.640Z,21.30
2019-04-30T19:37:40.346Z,21.30
2019-04-30T19:40:10.594Z,21.37
2019-04-30T19:42:40.671Z,26.27
2019-04-30T19:45:12.474Z,19.90
2019-04-30T19:47:42.501Z,20.77
2019-04-30T19:50:14.107Z,21.93
2019-04-30T19:52:44.537Z,22.63
2019-04-30T19:55:14.572Z,21.13
2019-04-30T19:57:44.678Z,22.03
2019-04-30T20:00:14.832Z,21.17
2019-04-30T20:02:44.863Z,22.07
2019-04-30T20:05:14.969Z,24.07
2019-04-30T20:07:45.094Z,19.53
2019-04-30T20:10:15.248Z,21.17
2019-04-30T20:12:45.300Z,21.27
2019-04-30T20:15:19.051Z,19.90
2019-04-30T20:17:47.108Z,21.10
2019-04-30T20:20:18.895Z,20.97
2019-04-30T20:22:51.776Z,21.10
2019-04-30T20:25:20.767Z,21.80
2019-04-30T20:27:50.858Z,21.10
2019-04-30T20:30:20.936Z,25.80
2019-04-30T20:32:51.405Z,23.20
2019-04-30T20:35:21.522Z,21.37
2019-04-30T20:38:09.564Z,20.43
2019-04-30T20:40:43.637Z,20.30
2019-04-30T20:43:13.305Z,21.23
2019-04-30T20:45:43.340Z,19.33
2019-04-30T20:48:13.378Z,22.37
2019-04-30T20:50:43.393Z,18.17
2019-04-30T20:53:13.582Z,22.00
2019-04-30T20:55:43.620Z,22.07
2019-04-30T20:58:13.643Z,21.37
2019-04-30T21:00:43.659Z,19.80
2019-04-30T21:03:13.735Z,19.60
2019-04-30T21:05:43.744Z,18.23
2019-04-30T21:08:13.824Z,19.77
2019-04-30T21:10:43.858Z,22.17
2019-04-30T21:13:14.004Z,20.63
2019-04-30T21:15:44.035Z,22.17
2019-04-30T21:18:14.132Z,20.80
2019-04-30T21:20:44.149Z,19.20
2019-04-30T21:23:14.319Z,19.57
2019-04-30T21:25:44.317Z,20.23
2019-04-30T21:28:14.391Z,20.43
2019-04-30T21:30:44.482Z,21.63
2019-04-30T21:33:42.611Z,18.43
2019-04-30T21:36:18.420Z,20.43
2019-04-30T21:38:49.048Z,21.63
2019-04-30T21:41:19.633Z,20.90
2019-04-30T21:43:49.847Z,18.50
2019-04-30T21:46:19.926Z,19.93
2019-04-30T21:48:49.995Z,24.20
2019-04-30T21:51:20.075Z,20.20
2019-04-30T21:53:50.474Z,20.43
2019-04-30T21:56:20.597Z,20.87
2019-04-30T21:58:50.673Z,23.67
2019-04-30T22:01:27.301Z,20.53
2019-04-30T22:03:57.433Z,19.47
2019-04-30T22:06:29.441Z,22.27
2019-04-30T22:08:59.292Z,24.60
2019-04-30T22:11:29.724Z,23.70
2019-04-30T22:13:59.965Z,23.50
2019-04-30T22:16:29.995Z,24.57
2019-04-30T22:19:00.115Z,23.03
2019-04-30T22:21:30.532Z,23.07
2019-04-30T22:24:00.652Z,24.13
2019-04-30T22:26:30.696Z,25.90
2019-04-30T22:29:00.764Z,22.80
2019-04-30T22:31:30.831Z,22.97
2019-04-30T22:34:00.907Z,23.23
2019-04-30T22:36:41.764Z,21.70
2019-04-30T22:39:46.004Z,23.23
2019-04-30T22:42:36.584Z,23.67
2019-04-30T22:45:19.142Z,27.20
2019-04-30T22:47:50.365Z,21.97
2019-04-30T22:50:20.628Z,25.07
2019-04-30T22:52:50.683Z,22.40
2019-04-30T22:55:20.754Z,25.67
2019-04-30T22:57:50.770Z,23.43
2019-04-30T23:00:26.302Z,22.03
2019-04-30T23:02:58.876Z,26.60
2019-04-30T23:05:28.940Z,25.83
2019-04-30T23:07:59.024Z,23.23
2019-04-30T23:10:29.104Z,25.73
2019-04-30T23:12:59.122Z,24.83
2019-04-30T23:15:29.266Z,26.68
2019-04-30T23:17:59.302Z,23.83
2019-04-30T23:20:29.755Z,25.00
2019-04-30T23:22:59.762Z,23.50
2019-04-30T23:25:29.868Z,23.40
2019-04-30T23:27:59.874Z,28.33
2019-04-30T23:30:30.328Z,25.32
2019-04-30T23:33:00.560Z,23.37
2019-04-30T23:35:30.585Z,25.90
2019-04-30T23:38:00.631Z,23.47
2019-04-30T23:40:37.178Z,22.03
2019-04-30T23:43:07.262Z,25.20
2019-04-30T23:45:37.296Z,25.53
2019-04-30T23:48:07.338Z,23.33
2019-04-30T23:50:37.426Z,24.97
2019-04-30T23:53:07.510Z,27.53
2019-04-30T23:55:37.522Z,25.87
2019-04-30T23:58:07.589Z,26.17
